createdAt,value
2023-05-15T00:01:59.497Z,62.36
2023-05-15T00:04:27.095Z,62.46
2023-05-15T00:06:54.213Z,62.35
2023-05-15T00:09:21.199Z,62.46
2023-05-15T00:11:48.137Z,62.61
2023-05-15T00:14:15.117Z,62.41
2023-05-15T00:16:42.180Z,62.80
2023-05-15T00:19:09.322Z,62.47
2023-05-15T00:21:36.316Z,62.71
2023-05-15T00:24:03.382Z,62.45
2023-05-15T00:26:31.121Z,62.50
2023-05-15T00:28:58.092Z,62.40
2023-05-15T00:31:25.113Z,62.39
2023-05-15T00:33:52.033Z,62.85
2023-05-15T00:36:21.763Z,62.46
2023-05-15T00:38:51.071Z,62.85
2023-05-15T00:41:18.953Z,62.81
2023-05-15T00:43:46.857Z,62.95
2023-05-15T00:46:14.401Z,62.95
2023-05-15T00:48:43.778Z,62.80
2023-05-15T00:51:11.008Z,63.03
2023-05-15T00:53:38.798Z,63.02
2023-05-15T00:56:07.321Z,62.78
2023-05-15T00:58:34.834Z,62.82
2023-05-15T01:01:01.917Z,62.68
2023-05-15T01:03:29.306Z,62.63
2023-05-15T01:05:56.617Z,62.57
2023-05-15T01:08:48.312Z,62.89
2023-05-15T01:11:16.569Z,62.56
2023-05-15T01:13:44.205Z,62.60
2023-05-15T01:16:11.789Z,62.24
2023-05-15T01:18:38.908Z,62.25
2023-05-15T01:21:18.173Z,62.34
2023-05-15T01:24:08.554Z,61.91
2023-05-15T01:27:13.671Z,62.11
2023-05-15T01:30:12.294Z,62.60
2023-05-15T01:33:01.742Z,62.18
2023-05-15T01:35:39.602Z,62.32
2023-05-15T01:38:20.151Z,62.24
2023-05-15T01:40:49.835Z,62.32
2023-05-15T01:43:24.456Z,62.29
2023-05-15T01:45:51.270Z,62.93
2023-05-15T01:48:19.773Z,62.84
2023-05-15T01:50:49.188Z,63.14
2023-05-15T01:53:19.221Z,63.17
2023-05-15T01:55:50.087Z,62.96
2023-05-15T01:58:18.035Z,62.40
2023-05-15T02:00:46.770Z,62.77
2023-05-15T02:03:15.100Z,62.69
2023-05-15T02:05:42.954Z,62.88
2023-05-15T02:08:11.336Z,62.81
2023-05-15T02:10:39.745Z,62.40
2023-05-15T02:13:09.181Z,62.49
2023-05-15T02:15:37.661Z,62.17
2023-05-15T02:18:05.128Z,62.37
2023-05-15T02:20:32.161Z,61.86
2023-05-15T02:22:59.192Z,61.70
2023-05-15T02:25:40.284Z,61.65
2023-05-15T02:28:17.465Z,61.68
2023-05-15T02:30:56.196Z,61.76
2023-05-15T02:33:42.802Z,62.12
2023-05-15T02:36:14.119Z,61.90
2023-05-15T02:38:49.475Z,62.28
2023-05-15T02:41:17.382Z,62.50
2023-05-15T02:43:46.687Z,62.33
2023-05-15T02:46:15.616Z,62.60
2023-05-15T02:48:44.320Z,62.96
2023-05-15T02:51:13.875Z,62.99
2023-05-15T02:53:42.159Z,62.71
2023-05-15T02:56:09.514Z,62.80
2023-05-15T02:58:37.228Z,63.22
2023-05-15T03:01:04.810Z,62.61
2023-05-15T03:03:31.862Z,63.00
2023-05-15T03:06:01.035Z,62.89
2023-05-15T03:08:28.992Z,62.77
2023-05-15T03:10:56.026Z,62.53
2023-05-15T03:13:23.573Z,62.27
2023-05-15T03:15:50.607Z,62.34
2023-05-15T03:18:19.004Z,62.52
2023-05-15T03:20:48.632Z,62.05
2023-05-15T03:23:16.168Z,62.46
2023-05-15T03:25:43.126Z,62.22
2023-05-15T03:28:10.249Z,62.04
2023-05-15T03:30:37.249Z,61.92
2023-05-15T03:33:04.482Z,61.90
2023-05-15T03:35:32.598Z,62.10
2023-05-15T03:37:59.647Z,62.11
2023-05-15T03:40:26.744Z,62.31
2023-05-15T03:42:53.845Z,62.30
2023-05-15T03:45:21.517Z,62.19
2023-05-15T03:47:49.076Z,62.16
2023-05-15T03:50:16.407Z,61.68
2023-05-15T03:52:43.560Z,61.58
2023-05-15T03:55:10.648Z,61.52
2023-05-15T03:57:37.684Z,61.88
2023-05-15T04:00:10.217Z,61.82
2023-05-15T04:02:41.226Z,62.13
2023-05-15T04:05:09.115Z,61.86
2023-05-15T04:07:36.854Z,62.09
2023-05-15T04:10:04.741Z,61.86
2023-05-15T04:12:33.985Z,62.14
2023-05-15T04:15:22.940Z,61.38
2023-05-15T04:17:52.037Z,61.75
2023-05-15T04:20:21.537Z,61.81
2023-05-15T04:22:48.948Z,61.30
2023-05-15T04:25:16.506Z,61.03
2023-05-15T04:27:44.494Z,60.37
2023-05-15T04:30:12.050Z,59.95
2023-05-15T04:32:40.261Z,59.42
2023-05-15T04:35:13.714Z,59.13
2023-05-15T04:37:42.166Z,59.34
2023-05-15T04:40:10.233Z,59.22
2023-05-15T04:42:39.216Z,58.05
2023-05-15T04:45:07.569Z,58.00
2023-05-15T04:47:34.773Z,57.32
2023-05-15T04:50:01.891Z,57.50
2023-05-15T04:52:28.999Z,57.26
2023-05-15T04:54:56.261Z,57.01
2023-05-15T04:57:23.467Z,56.88
2023-05-15T04:59:50.438Z,57.24
2023-05-15T05:02:21.791Z,56.41
2023-05-15T05:04:48.798Z,56.43
2023-05-15T05:07:15.923Z,55.86
2023-05-15T05:09:43.028Z,55.83
2023-05-15T05:12:10.039Z,54.96
2023-05-15T05:14:37.433Z,54.80
2023-05-15T05:17:04.650Z,54.25
2023-05-15T05:19:31.562Z,53.97
2023-05-15T05:22:01.706Z,53.50
2023-05-15T05:24:28.723Z,53.40
2023-05-15T05:26:58.245Z,52.70
2023-05-15T05:29:26.258Z,52.89
2023-05-15T05:31:53.466Z,53.18
2023-05-15T05:34:20.748Z,52.44
2023-05-15T05:36:47.909Z,52.23
2023-05-15T05:39:16.998Z,52.14
2023-05-15T05:41:44.541Z,51.42
2023-05-15T05:44:11.747Z,50.77
2023-05-15T05:46:38.945Z,51.91
2023-05-15T05:49:06.203Z,51.52
2023-05-15T05:51:36.882Z,51.11
2023-05-15T05:54:04.251Z,50.86
2023-05-15T05:56:31.494Z,51.13
2023-05-15T05:58:59.755Z,50.11
2023-05-15T06:01:27.781Z,50.01
2023-05-15T06:03:56.114Z,48.66
2023-05-15T06:06:23.275Z,47.59
2023-05-15T06:08:50.316Z,46.35
2023-05-15T06:11:17.482Z,46.76
2023-05-15T06:13:44.654Z,46.72
2023-05-15T06:16:11.610Z,46.62
2023-05-15T06:18:38.575Z,46.62
2023-05-15T06:21:05.816Z,46.38
2023-05-15T06:23:32.806Z,45.75
2023-05-15T06:25:59.787Z,45.63
2023-05-15T06:28:27.120Z,45.38
2023-05-15T06:30:54.030Z,45.29
2023-05-15T06:33:22.231Z,45.01
2023-05-15T06:35:49.378Z,45.66
2023-05-15T06:38:16.879Z,44.19
2023-05-15T06:40:43.861Z,44.32
2023-05-15T06:43:10.981Z,44.41
2023-05-15T06:45:37.981Z,43.72
2023-05-15T06:48:05.137Z,43.43
2023-05-15T06:50:32.064Z,43.31
2023-05-15T06:52:58.971Z,43.21
2023-05-15T06:55:26.253Z,43.08
2023-05-15T06:57:53.423Z,42.90
2023-05-15T07:00:20.644Z,41.73
2023-05-15T07:02:47.864Z,40.27
2023-05-15T07:05:15.251Z,39.47
2023-05-15T07:07:42.968Z,37.64
2023-05-15T07:10:10.112Z,37.08
2023-05-15T07:12:37.276Z,35.76
2023-05-15T07:15:05.529Z,34.87
2023-05-15T07:17:34.056Z,33.81
2023-05-15T07:20:01.113Z,32.77
2023-05-15T07:22:29.217Z,32.38
2023-05-15T07:24:56.337Z,31.72
2023-05-15T07:27:23.268Z,29.85
2023-05-15T07:29:50.582Z,30.18
2023-05-15T07:32:17.869Z,29.11
2023-05-15T07:34:44.977Z,28.90
2023-05-15T07:37:11.875Z,28.15
2023-05-15T07:39:39.009Z,28.46
2023-05-15T07:42:06.183Z,27.33
2023-05-15T07:44:33.112Z,26.59
2023-05-15T07:47:00.487Z,25.47
2023-05-15T07:49:27.483Z,25.09
2023-05-15T07:51:54.395Z,25.02
2023-05-15T07:54:21.395Z,25.05
2023-05-15T07:56:48.358Z,25.38
2023-05-15T07:59:15.380Z,24.56
2023-05-15T08:01:42.375Z,24.30
2023-05-15T08:04:09.838Z,24.23
2023-05-15T08:06:39.810Z,23.01
2023-05-15T08:09:06.851Z,23.15
2023-05-15T08:11:33.874Z,23.51
2023-05-15T08:14:00.921Z,22.68
2023-05-15T08:16:27.976Z,22.70
2023-05-15T08:18:58.836Z,22.15
2023-05-15T08:21:25.806Z,22.07
2023-05-15T08:23:53.924Z,21.71
2023-05-15T08:26:21.210Z,22.25
2023-05-15T08:28:48.186Z,22.31
2023-05-15T08:31:15.212Z,21.84
2023-05-15T08:33:42.197Z,22.57
2023-05-15T08:36:09.388Z,22.52
2023-05-15T08:38:36.717Z,22.77
2023-05-15T08:41:11.140Z,24.19
2023-05-15T08:43:39.738Z,23.72
2023-05-15T08:46:15.821Z,24.56
2023-05-15T08:48:44.122Z,24.82
2023-05-15T08:51:11.546Z,25.10
2023-05-15T08:53:38.611Z,25.23
2023-05-15T08:56:06.201Z,26.29
2023-05-15T08:58:34.012Z,26.90
2023-05-15T09:01:01.368Z,27.35
2023-05-15T09:03:28.559Z,27.31
2023-05-15T09:05:56.007Z,27.68
2023-05-15T09:08:24.668Z,26.88
2023-05-15T09:10:53.298Z,27.67
2023-05-15T09:13:20.304Z,27.34
2023-05-15T09:15:48.333Z,28.13
2023-05-15T09:18:16.252Z,29.26
2023-05-15T09:20:43.128Z,31.42
2023-05-15T09:23:24.648Z,32.22
2023-05-15T09:25:53.958Z,31.97
2023-05-15T09:28:32.305Z,33.36
2023-05-15T09:31:01.794Z,33.16
2023-05-15T09:33:37.427Z,33.60
2023-05-15T09:36:06.992Z,33.99
2023-05-15T09:38:35.112Z,34.35
2023-05-15T09:41:05.028Z,34.29
2023-05-15T09:43:39.972Z,34.63
2023-05-15T09:46:13.197Z,34.84
2023-05-15T09:48:40.613Z,36.33
2023-05-15T09:51:16.239Z,37.16
2023-05-15T09:53:43.329Z,36.94
2023-05-15T09:56:10.642Z,36.54
2023-05-15T09:58:37.692Z,36.57
2023-05-15T10:01:12.230Z,37.07
2023-05-15T10:03:43.790Z,36.55
2023-05-15T10:06:18.642Z,36.49
2023-05-15T10:08:52.739Z,35.57
2023-05-15T10:11:20.024Z,35.12
2023-05-15T10:13:47.773Z,34.27
2023-05-15T10:16:15.288Z,34.02
2023-05-15T10:18:45.830Z,37.17
2023-05-15T10:21:13.917Z,37.26
2023-05-15T10:23:43.767Z,36.65
2023-05-15T10:26:22.098Z,37.45
2023-05-15T10:28:50.102Z,38.42
2023-05-15T10:31:18.885Z,37.76
2023-05-15T10:33:47.584Z,38.85
2023-05-15T10:36:15.844Z,39.00
2023-05-15T10:38:44.166Z,38.78
2023-05-15T10:41:17.535Z,37.92
2023-05-15T10:43:46.641Z,38.21
2023-05-15T10:46:14.221Z,38.65
2023-05-15T10:48:41.588Z,37.99
2023-05-15T10:51:24.289Z,39.89
2023-05-15T10:53:51.949Z,40.13
2023-05-15T10:56:19.060Z,39.42
2023-05-15T10:58:50.143Z,41.17
2023-05-15T11:01:43.413Z,42.21
2023-05-15T11:04:14.726Z,41.83
2023-05-15T11:06:46.365Z,40.65
2023-05-15T11:09:22.458Z,42.71
2023-05-15T11:11:52.878Z,42.91
2023-05-15T11:14:20.287Z,42.52
2023-05-15T11:16:53.622Z,46.70
2023-05-15T11:19:35.237Z,46.93
2023-05-15T11:22:03.362Z,47.00
2023-05-15T11:24:32.128Z,46.62
2023-05-15T11:27:03.820Z,46.61
2023-05-15T11:29:31.758Z,47.45
2023-05-15T11:31:59.758Z,47.34
2023-05-15T11:34:41.542Z,45.85
2023-05-15T11:37:17.997Z,47.36
2023-05-15T11:39:45.135Z,47.22
2023-05-15T11:42:13.212Z,46.99
2023-05-15T11:44:40.538Z,45.62
2023-05-15T11:47:11.490Z,46.53
2023-05-15T11:49:38.795Z,48.26
2023-05-15T11:52:06.570Z,46.90
2023-05-15T11:54:33.954Z,47.98
2023-05-15T11:57:01.970Z,44.82
2023-05-15T11:59:28.949Z,44.76
2023-05-15T12:01:55.872Z,44.09
2023-05-15T12:04:23.029Z,45.68
2023-05-15T12:06:50.134Z,43.78
2023-05-15T12:09:19.210Z,47.39
2023-05-15T12:11:56.043Z,48.68
2023-05-15T12:14:29.798Z,49.40
2023-05-15T12:17:03.070Z,49.76
2023-05-15T12:19:31.161Z,48.77
2023-05-15T12:21:58.082Z,49.04
2023-05-15T12:24:27.034Z,50.06
2023-05-15T12:26:56.621Z,50.20
2023-05-15T12:29:25.911Z,50.21
2023-05-15T12:31:54.252Z,50.34
2023-05-15T12:34:22.038Z,50.61
2023-05-15T12:36:49.254Z,50.03
2023-05-15T12:39:16.260Z,50.19
2023-05-15T12:41:46.313Z,49.74
2023-05-15T12:44:21.169Z,51.20
2023-05-15T12:46:48.762Z,50.08
2023-05-15T12:49:21.773Z,50.10
2023-05-15T12:51:49.214Z,49.80
2023-05-15T12:54:24.004Z,49.82
2023-05-15T12:56:51.092Z,49.96
2023-05-15T12:59:19.094Z,50.74
2023-05-15T13:01:46.174Z,50.58
2023-05-15T13:04:13.117Z,49.64
2023-05-15T13:06:46.221Z,49.43
2023-05-15T13:09:14.315Z,49.25
2023-05-15T13:11:45.345Z,50.15
2023-05-15T13:14:17.709Z,50.84
2023-05-15T13:16:47.786Z,51.94
2023-05-15T13:19:16.022Z,53.42
2023-05-15T13:21:43.965Z,53.71
2023-05-15T13:24:11.157Z,53.86
2023-05-15T13:26:38.235Z,54.28
2023-05-15T13:29:05.406Z,54.33
2023-05-15T13:31:32.670Z,54.28
2023-05-15T13:33:59.645Z,53.07
2023-05-15T13:36:26.883Z,52.22
2023-05-15T13:38:53.795Z,53.19
2023-05-15T13:41:21.287Z,53.33
2023-05-15T13:43:49.433Z,53.91
2023-05-15T13:46:16.671Z,53.46
2023-05-15T13:48:43.841Z,53.09
2023-05-15T13:51:11.409Z,52.89
2023-05-15T13:53:38.358Z,53.70
2023-05-15T13:56:06.632Z,54.08
2023-05-15T13:58:34.514Z,53.95
2023-05-15T14:01:05.665Z,54.51
2023-05-15T14:03:32.765Z,55.16
2023-05-15T14:06:00.114Z,54.87
2023-05-15T14:08:27.101Z,54.81
2023-05-15T14:10:53.987Z,54.31
2023-05-15T14:13:20.912Z,54.39
2023-05-15T14:15:47.926Z,54.40
2023-05-15T14:18:14.998Z,53.92
2023-05-15T14:20:42.088Z,54.37
2023-05-15T14:23:09.063Z,54.31
2023-05-15T14:25:36.026Z,54.19
2023-05-15T14:28:03.015Z,54.39
2023-05-15T14:30:30.028Z,54.69
2023-05-15T14:32:57.018Z,54.55
2023-05-15T14:35:24.225Z,54.67
2023-05-15T14:37:51.228Z,54.61
2023-05-15T14:40:18.279Z,54.72
2023-05-15T14:42:45.221Z,54.77
2023-05-15T14:45:12.230Z,53.65
2023-05-15T14:47:39.637Z,54.53
2023-05-15T14:50:07.466Z,54.55
2023-05-15T14:52:34.431Z,53.91
2023-05-15T14:55:09.192Z,54.70
2023-05-15T14:57:38.038Z,55.18
2023-05-15T15:00:06.741Z,54.38
2023-05-15T15:02:34.260Z,53.29
2023-05-15T15:05:01.339Z,52.95
2023-05-15T15:07:32.487Z,51.57
2023-05-15T15:09:59.526Z,51.27
2023-05-15T15:12:26.963Z,50.79
2023-05-15T15:14:54.124Z,50.74
2023-05-15T15:17:21.040Z,50.85
2023-05-15T15:19:48.234Z,51.30
2023-05-15T15:22:15.250Z,51.33
2023-05-15T15:24:42.276Z,50.86
2023-05-15T15:27:09.344Z,50.40
2023-05-15T15:29:36.387Z,51.22
2023-05-15T15:32:04.168Z,51.77
2023-05-15T15:34:31.221Z,51.59
2023-05-15T15:36:58.206Z,51.46
2023-05-15T15:39:25.268Z,53.06
2023-05-15T15:41:53.776Z,54.17
2023-05-15T15:44:20.700Z,54.00
2023-05-15T15:46:48.039Z,53.82
2023-05-15T15:49:15.052Z,55.21
2023-05-15T15:51:42.235Z,55.41
2023-05-15T15:54:09.272Z,55.00
2023-05-15T15:56:36.240Z,55.59
2023-05-15T15:59:04.196Z,57.05
2023-05-15T16:01:31.547Z,57.19
2023-05-15T16:03:58.621Z,56.88
2023-05-15T16:06:25.866Z,57.33
2023-05-15T16:08:52.827Z,57.15
2023-05-15T16:11:19.749Z,57.08
2023-05-15T16:13:46.734Z,56.04
2023-05-15T16:16:13.698Z,54.52
2023-05-15T16:18:40.819Z,55.36
2023-05-15T16:21:08.196Z,54.34
2023-05-15T16:23:36.979Z,55.01
2023-05-15T16:26:06.536Z,55.15
2023-05-15T16:28:33.537Z,54.53
2023-05-15T16:31:01.280Z,54.92
2023-05-15T16:33:29.934Z,54.02
2023-05-15T16:35:57.399Z,53.81
2023-05-15T16:38:25.300Z,53.63
2023-05-15T16:40:52.361Z,53.84
2023-05-15T16:43:20.237Z,52.52
2023-05-15T16:45:47.391Z,53.02
2023-05-15T16:48:14.491Z,53.10
2023-05-15T16:50:41.540Z,53.62
2023-05-15T16:53:08.681Z,53.49
2023-05-15T16:55:35.664Z,52.40
2023-05-15T16:58:02.620Z,53.24
2023-05-15T17:00:29.525Z,52.92
2023-05-15T17:02:56.733Z,52.43
2023-05-15T17:05:23.828Z,54.60
2023-05-15T17:07:50.793Z,52.53
2023-05-15T17:10:17.795Z,53.93
2023-05-15T17:12:45.114Z,55.00
2023-05-15T17:15:13.255Z,53.56
2023-05-15T17:17:40.260Z,54.59
2023-05-15T17:20:07.739Z,55.19
2023-05-15T17:22:34.784Z,54.84
2023-05-15T17:25:01.966Z,55.62
2023-05-15T17:27:29.001Z,54.81
2023-05-15T17:29:56.049Z,55.12
2023-05-15T17:32:23.230Z,54.80
2023-05-15T17:34:52.994Z,55.46
2023-05-15T17:37:20.030Z,55.46
2023-05-15T17:39:47.023Z,55.31
2023-05-15T17:42:13.967Z,55.94
2023-05-15T17:44:41.042Z,53.83
2023-05-15T17:47:09.933Z,54.04
2023-05-15T17:49:38.201Z,54.97
2023-05-15T17:52:06.419Z,55.48
2023-05-15T17:54:33.371Z,56.44
2023-05-15T17:57:00.491Z,56.91
2023-05-15T17:59:27.875Z,57.11
2023-05-15T18:01:54.994Z,57.63
2023-05-15T18:04:22.137Z,58.28
2023-05-15T18:06:49.888Z,58.55
2023-05-15T18:09:17.069Z,58.62
2023-05-15T18:11:44.120Z,58.63
2023-05-15T18:14:11.112Z,58.82
2023-05-15T18:16:38.454Z,58.70
2023-05-15T18:19:05.555Z,58.00
2023-05-15T18:21:33.697Z,57.88
2023-05-15T18:24:01.499Z,58.09
2023-05-15T18:26:31.280Z,58.04
2023-05-15T18:28:58.204Z,57.46
2023-05-15T18:31:25.435Z,57.84
2023-05-15T18:33:52.855Z,57.88
2023-05-15T18:36:19.818Z,58.13
2023-05-15T18:38:46.758Z,58.63
2023-05-15T18:41:16.496Z,58.74
2023-05-15T18:43:43.520Z,58.90
2023-05-15T18:46:10.457Z,59.19
2023-05-15T18:48:37.599Z,59.98
2023-05-15T18:51:04.545Z,60.18
2023-05-15T18:53:31.653Z,60.56
2023-05-15T18:55:58.616Z,60.86
2023-05-15T18:58:25.543Z,60.82
2023-05-15T19:00:52.539Z,61.41
2023-05-15T19:03:20.895Z,61.24
2023-05-15T19:05:47.963Z,61.40
2023-05-15T19:08:15.024Z,61.82
2023-05-15T19:10:47.338Z,61.61
2023-05-15T19:13:14.344Z,62.57
2023-05-15T19:15:41.375Z,62.77
2023-05-15T19:18:08.487Z,63.17
2023-05-15T19:20:35.594Z,63.05
2023-05-15T19:23:02.636Z,63.33
2023-05-15T19:25:29.677Z,63.52
2023-05-15T19:27:56.690Z,63.18
2023-05-15T19:30:23.888Z,63.48
2023-05-15T19:32:50.997Z,63.64
2023-05-15T19:35:17.970Z,63.01
2023-05-15T19:37:45.248Z,63.41
2023-05-15T19:40:12.941Z,63.09
2023-05-15T19:42:39.914Z,62.86
2023-05-15T19:45:07.456Z,63.23
2023-05-15T19:47:34.533Z,64.13
2023-05-15T19:50:01.498Z,63.48
2023-05-15T19:52:28.524Z,63.77
2023-05-15T19:54:55.466Z,62.80
2023-05-15T19:57:22.421Z,62.51
2023-05-15T19:59:49.581Z,62.59
2023-05-15T20:02:16.512Z,62.43
2023-05-15T20:04:43.398Z,62.29
2023-05-15T20:07:10.591Z,62.15
2023-05-15T20:09:39.313Z,62.56
2023-05-15T20:12:07.014Z,62.66
2023-05-15T20:14:34.972Z,63.07
2023-05-15T20:17:01.993Z,63.23
2023-05-15T20:19:31.601Z,63.22
2023-05-15T20:21:58.578Z,63.34
2023-05-15T20:24:26.424Z,62.96
2023-05-15T20:26:53.388Z,62.92
2023-05-15T20:29:21.151Z,62.89
2023-05-15T20:31:48.455Z,62.71
2023-05-15T20:34:16.075Z,63.01
2023-05-15T20:36:44.005Z,62.89
2023-05-15T20:39:11.598Z,62.67
2023-05-15T20:41:38.577Z,62.32
2023-05-15T20:44:05.887Z,62.39
2023-05-15T20:46:33.151Z,62.85
2023-05-15T20:49:00.166Z,62.23
2023-05-15T20:51:27.069Z,62.70
2023-05-15T20:53:54.015Z,62.60
2023-05-15T20:56:21.790Z,62.41
2023-05-15T20:58:49.062Z,62.63
2023-05-15T21:01:16.394Z,62.65
2023-05-15T21:03:43.997Z,62.32
2023-05-15T21:06:11.426Z,62.37
2023-05-15T21:08:38.354Z,62.51
2023-05-15T21:11:05.355Z,62.37
2023-05-15T21:13:32.434Z,62.24
2023-05-15T21:15:59.485Z,62.04
2023-05-15T21:18:27.050Z,61.95
2023-05-15T21:20:54.011Z,62.00
2023-05-15T21:23:21.476Z,61.86
2023-05-15T21:25:48.455Z,62.24
2023-05-15T21:28:16.009Z,62.06
2023-05-15T21:30:43.127Z,61.89
2023-05-15T21:33:10.491Z,61.55
2023-05-15T21:35:38.217Z,61.37
2023-05-15T21:38:05.620Z,61.11
2023-05-15T21:40:32.759Z,60.87
2023-05-15T21:42:59.743Z,60.66
2023-05-15T21:45:26.809Z,60.24
2023-05-15T21:47:53.777Z,60.18
2023-05-15T21:50:20.723Z,60.13
2023-05-15T21:52:50.414Z,59.88
2023-05-15T21:55:17.819Z,60.06
2023-05-15T21:57:45.462Z,59.95
2023-05-15T22:00:12.705Z,59.72
2023-05-15T22:02:39.641Z,59.86
2023-05-15T22:05:07.102Z,59.81
2023-05-15T22:07:34.077Z,59.79
2023-05-15T22:10:03.174Z,59.86
2023-05-15T22:12:30.590Z,59.83
2023-05-15T22:14:59.349Z,59.31
2023-05-15T22:17:29.349Z,59.39
2023-05-15T22:20:07.220Z,59.12
2023-05-15T22:22:35.956Z,59.01
2023-05-15T22:25:03.043Z,58.42
2023-05-15T22:27:30.219Z,58.84
2023-05-15T22:29:57.246Z,58.85
2023-05-15T22:32:24.939Z,58.71
2023-05-15T22:34:52.324Z,58.56
2023-05-15T22:37:20.574Z,58.71
2023-05-15T22:39:47.820Z,58.49
2023-05-15T22:42:14.985Z,58.53
2023-05-15T22:44:41.890Z,58.50
2023-05-15T22:47:08.779Z,58.73
2023-05-15T22:49:36.306Z,58.58
2023-05-15T22:52:03.863Z,58.22
2023-05-15T22:54:30.769Z,58.33
2023-05-15T22:56:58.171Z,57.70
2023-05-15T22:59:25.204Z,57.92
2023-05-15T23:01:52.323Z,57.83
2023-05-15T23:04:19.432Z,58.03
2023-05-15T23:06:46.760Z,57.90
2023-05-15T23:09:14.175Z,58.02
2023-05-15T23:11:41.310Z,58.21
2023-05-15T23:14:08.508Z,58.02
2023-05-15T23:16:36.032Z,58.36
2023-05-15T23:19:03.275Z,57.89
2023-05-15T23:21:30.302Z,57.97
2023-05-15T23:23:57.312Z,57.67
2023-05-15T23:26:24.750Z,57.90
2023-05-15T23:28:51.796Z,57.68
2023-05-15T23:31:18.892Z,57.80
2023-05-15T23:33:46.134Z,57.97
2023-05-15T23:36:13.018Z,57.67
2023-05-15T23:38:40.134Z,57.96
2023-05-15T23:41:07.377Z,57.46
2023-05-15T23:43:34.830Z,57.62
2023-05-15T23:46:01.857Z,57.53
2023-05-15T23:48:29.196Z,57.27
2023-05-15T23:50:56.146Z,57.15
2023-05-15T23:53:23.167Z,57.26
2023-05-15T23:55:53.723Z,57.27
2023-05-15T23:58:21.533Z,57.41
